Time;durP1;ratioP1;P1;durP2;ratioP2;P2;SDS_P1;SDS_P2;PMS_P1;PMS_P2;Temp;Humidity;BMP_temperature;BMP_pressure;BME280_temperature;BME280_humidity;BME280_pressure;Samples;Min_cycle;Max_cycle;Signal;HPM_P1;HPM_P2
2021/10/06 00:00:09;;;;;;;0.50;0.10;;;21.70;57.10;;;;;;5044243;28;20418;-43
2021/10/06 00:02:39;;;;;;;1.38;0.10;;;21.70;57.10;;;;;;5045036;28;20076;-43
2021/10/06 00:05:07;;;;;;;1.58;0.10;;;21.70;57.00;;;;;;5046028;28;20064;-45
2021/10/06 00:07:35;;;;;;;2.40;0.20;;;21.70;57.00;;;;;;5045607;28;20067;-44
2021/10/06 00:10:03;;;;;;;0.82;0.10;;;21.70;57.00;;;;;;5045536;28;20144;-46
2021/10/06 00:12:30;;;;;;;1.60;0.30;;;21.70;57.00;;;;;;5045114;28;20037;-45
2021/10/06 00:14:57;;;;;;;2.13;0.22;;;21.70;57.00;;;;;;5041794;28;20535;-46
2021/10/06 00:17:25;;;;;;;1.17;0.28;;;21.60;56.90;;;;;;5046017;28;20405;-44
2021/10/06 00:19:53;;;;;;;0.65;0.10;;;21.60;56.80;;;;;;5045209;28;20116;-43
2021/10/06 00:22:21;;;;;;;0.57;0.10;;;21.60;56.80;;;;;;5047731;28;20065;-44
2021/10/06 00:24:49;;;;;;;1.70;0.30;;;21.60;56.80;;;;;;5046076;28;20598;-45
2021/10/06 00:27:17;;;;;;;2.67;0.57;;;21.60;56.80;;;;;;5045100;28;20044;-43
2021/10/06 00:29:44;;;;;;;0.95;0.95;;;21.60;56.80;;;;;;5045191;28;20127;-45
2021/10/06 00:32:11;;;;;;;0.90;0.00;;;21.60;56.80;;;;;;5046098;28;20048;-43
2021/10/06 00:34:38;;;;;;;1.60;0.15;;;21.60;56.80;;;;;;5045091;28;20040;-45
2021/10/06 00:37:05;;;;;;;2.22;0.10;;;21.60;56.80;;;;;;5047414;28;20555;-46
2021/10/06 00:39:32;;;;;;;1.75;0.10;;;21.60;56.80;;;;;;5047979;28;20037;-47
2021/10/06 00:42:00;;;;;;;0.50;0.10;;;21.60;56.80;;;;;;5044687;28;20055;-44
2021/10/06 00:44:33;;;;;;;0.88;0.20;;;21.70;56.80;;;;;;5050360;28;20044;-46
2021/10/06 00:47:00;;;;;;;2.25;0.08;;;21.60;56.70;;;;;;5048151;28;20040;-45
2021/10/06 00:49:27;;;;;;;2.10;0.10;;;21.60;56.80;;;;;;5050822;28;20428;-44
2021/10/06 00:51:54;;;;;;;0.10;0.03;;;21.60;56.70;;;;;;5050421;28;20397;-44
2021/10/06 00:54:21;;;;;;;0.70;0.20;;;21.60;56.70;;;;;;5049735;28;20041;-44
2021/10/06 00:56:49;;;;;;;2.92;0.10;;;21.60;56.70;;;;;;5046652;28;20053;-44
2021/10/06 00:59:17;;;;;;;1.35;0.10;;;21.60;56.70;;;;;;5046786;28;20370;-46
2021/10/06 01:01:44;;;;;;;0.50;0.05;;;21.60;56.70;;;;;;5046962;28;20851;-45
2021/10/06 01:04:11;;;;;;;0.63;0.08;;;21.60;56.60;;;;;;5049330;28;20386;-45
2021/10/06 01:06:39;;;;;;;2.78;0.38;;;21.60;56.60;;;;;;5049439;28;20051;-46
2021/10/06 01:09:06;;;;;;;2.85;0.10;;;21.60;56.60;;;;;;5049646;28;20033;-46
2021/10/06 01:11:33;;;;;;;1.27;0.10;;;21.60;56.60;;;;;;5047085;28;20067;-45
2021/10/06 01:14:00;;;;;;;3.35;0.20;;;21.60;56.60;;;;;;5046769;28;20596;-44
2021/10/06 01:16:29;;;;;;;0.52;0.00;;;21.60;56.50;;;;;;5050785;28;20056;-44
2021/10/06 01:18:56;;;;;;;0.35;0.10;;;21.60;56.50;;;;;;5048053;28;20639;-44
2021/10/06 01:21:24;;;;;;;1.60;0.20;;;21.60;56.50;;;;;;5046681;28;20045;-44
2021/10/06 01:23:52;;;;;;;2.30;0.17;;;21.60;56.50;;;;;;5046052;28;20563;-43
2021/10/06 01:26:19;;;;;;;1.73;0.10;;;21.60;56.50;;;;;;5049141;28;20041;-45
2021/10/06 01:28:47;;;;;;;0.77;0.10;;;21.60;56.50;;;;;;5047873;28;20091;-47
2021/10/06 01:31:14;;;;;;;1.45;0.10;;;21.50;56.40;;;;;;5045659;28;20044;-43
2021/10/06 01:33:41;;;;;;;0.73;0.10;;;21.60;56.40;;;;;;5045393;28;20045;-47
2021/10/06 01:36:08;;;;;;;0.40;0.03;;;21.50;56.40;;;;;;5041672;28;20040;-44
2021/10/06 01:38:37;;;;;;;2.92;0.10;;;21.60;56.40;;;;;;5047772;28;20052;-43
2021/10/06 01:41:04;;;;;;;0.65;0.22;;;21.50;56.30;;;;;;5048538;28;20139;-46
2021/10/06 01:43:31;;;;;;;0.22;0.10;;;21.50;56.40;;;;;;5047116;28;20037;-45
2021/10/06 01:45:58;;;;;;;1.88;0.10;;;21.50;56.40;;;;;;5049478;28;20049;-44
2021/10/06 01:48:26;;;;;;;2.38;0.10;;;21.50;56.40;;;;;;5048657;28;20044;-44
2021/10/06 01:50:53;;;;;;;0.82;0.40;;;21.50;56.30;;;;;;5042110;28;20041;-43
2021/10/06 01:53:20;;;;;;;0.55;0.10;;;21.50;56.30;;;;;;5045644;28;20074;-42
2021/10/06 01:55:49;;;;;;;0.75;0.00;;;21.50;56.30;;;;;;5048557;28;20037;-43
2021/10/06 01:58:19;;;;;;;1.20;0.32;;;21.50;56.30;;;;;;5050402;28;20536;-43
2021/10/06 02:00:49;;;;;;;1.83;0.00;;;21.50;56.30;;;;;;5047563;28;20072;-46
2021/10/06 02:03:16;;;;;;;3.15;0.00;;;21.50;56.30;;;;;;5048316;28;20421;-44
2021/10/06 02:05:44;;;;;;;0.45;0.10;;;21.50;56.30;;;;;;5045845;28;20037;-43
2021/10/06 02:08:14;;;;;;;0.75;0.10;;;21.50;56.30;;;;;;5048501;28;20041;-48
2021/10/06 02:10:42;;;;;;;1.23;0.10;;;21.40;56.20;;;;;;5048924;28;20045;-44
2021/10/06 02:13:11;;;;;;;0.55;0.43;;;21.50;56.80;;;;;;5043834;28;20589;-43
2021/10/06 02:15:38;;;;;;;0.88;0.08;;;21.50;56.30;;;;;;5047266;28;20600;-44
2021/10/06 02:18:05;;;;;;;0.70;0.10;;;21.50;56.30;;;;;;5048286;28;20037;-44
2021/10/06 02:20:32;;;;;;;0.68;0.32;;;21.40;56.20;;;;;;5048292;28;20037;-43
2021/10/06 02:22:59;;;;;;;1.65;0.38;;;21.40;56.20;;;;;;5048383;28;20033;-43
2021/10/06 02:25:27;;;;;;;2.90;0.32;;;21.40;56.20;;;;;;5049767;28;20057;-45
2021/10/06 02:27:54;;;;;;;0.10;0.00;;;21.40;56.20;;;;;;5048735;28;20049;-44
2021/10/06 02:30:22;;;;;;;0.82;0.10;;;21.40;56.20;;;;;;5047779;28;20041;-47
2021/10/06 02:32:49;;;;;;;0.73;0.10;;;21.40;56.10;;;;;;5042697;28;20101;-44
2021/10/06 02:35:16;;;;;;;0.73;0.10;;;21.40;56.10;;;;;;5045498;28;20456;-48
2021/10/06 02:37:44;;;;;;;3.30;0.10;;;21.40;56.10;;;;;;5048058;28;20500;-44
2021/10/06 02:40:14;;;;;;;0.52;0.20;;;21.40;56.10;;;;;;5049298;28;20041;-45
2021/10/06 02:42:42;;;;;;;2.38;0.63;;;21.40;56.10;;;;;;5048038;28;20049;-44
2021/10/06 02:45:10;;;;;;;1.20;0.10;;;21.40;56.10;;;;;;5047143;28;20045;-44
2021/10/06 02:47:39;;;;;;;2.38;0.10;;;21.40;56.10;;;;;;5047234;28;20041;-44
2021/10/06 02:50:10;;;;;;;1.55;0.10;;;21.40;56.10;;;;;;5048287;28;20044;-45
2021/10/06 02:52:37;;;;;;;1.33;0.10;;;21.40;56.10;;;;;;5042886;28;20051;-44
2021/10/06 02:55:05;;;;;;;0.25;0.10;;;21.40;56.10;;;;;;5048511;28;20056;-44
2021/10/06 02:57:32;;;;;;;0.30;0.20;;;21.40;56.10;;;;;;5047524;28;20045;-44
2021/10/06 02:59:59;;;;;;;0.55;0.00;;;21.40;56.10;;;;;;5044687;28;20493;-44
2021/10/06 03:02:26;;;;;;;0.80;0.30;;;21.40;56.10;;;;;;5045901;28;20080;-45
2021/10/06 03:04:54;;;;;;;1.33;0.03;;;21.40;56.10;;;;;;5041119;28;20037;-44
2021/10/06 03:07:21;;;;;;;2.08;0.10;;;21.40;56.10;;;;;;5048802;28;20057;-43
2021/10/06 03:09:48;;;;;;;0.30;0.10;;;21.40;56.10;;;;;;5042330;28;20045;-45
2021/10/06 03:12:15;;;;;;;0.32;0.10;;;21.40;56.10;;;;;;5046068;28;20523;-45
2021/10/06 03:14:42;;;;;;;0.30;0.10;;;21.40;56.00;;;;;;5047271;28;20077;-46
2021/10/06 03:17:09;;;;;;;2.88;0.00;;;21.40;56.00;;;;;;5047224;28;20505;-44
2021/10/06 03:19:36;;;;;;;6.28;0.00;;;21.30;56.00;;;;;;5047353;28;20041;-44
2021/10/06 03:22:05;;;;;;;0.77;0.03;;;21.30;55.90;;;;;;5048188;28;20045;-44
2021/10/06 03:24:32;;;;;;;0.70;0.00;;;21.40;56.00;;;;;;5040630;28;20597;-46
2021/10/06 03:26:59;;;;;;;2.92;0.00;;;21.40;56.00;;;;;;5042962;28;20504;-45
2021/10/06 03:29:25;;;;;;;0.40;0.25;;;21.30;56.00;;;;;;5046546;28;20413;-44
2021/10/06 03:31:52;;;;;;;1.50;0.08;;;21.30;56.00;;;;;;5045497;28;20410;-44
2021/10/06 03:34:19;;;;;;;1.95;0.20;;;21.30;56.00;;;;;;5048235;28;20037;-44
2021/10/06 03:36:47;;;;;;;0.70;0.10;;;21.30;56.00;;;;;;5047006;28;20041;-45
2021/10/06 03:39:15;;;;;;;3.50;0.30;;;21.30;55.90;;;;;;5046806;28;20434;-46
2021/10/06 03:41:42;;;;;;;0.80;0.10;;;21.30;56.00;;;;;;5043671;28;20053;-47
2021/10/06 03:44:09;;;;;;;3.22;0.10;;;21.30;55.90;;;;;;5046275;28;20043;-44
2021/10/06 03:46:36;;;;;;;1.67;0.00;;;21.30;55.90;;;;;;5046755;28;20044;-45
2021/10/06 03:49:03;;;;;;;1.95;0.10;;;21.30;55.90;;;;;;5044972;28;20036;-46
2021/10/06 03:51:30;;;;;;;1.27;0.05;;;21.30;55.90;;;;;;5043361;28;20118;-43
2021/10/06 03:53:57;;;;;;;7.43;0.10;;;21.30;56.00;;;;;;5043314;28;20037;-46
2021/10/06 03:56:26;;;;;;;0.43;0.00;;;21.30;56.00;;;;;;5041122;28;20048;-43
2021/10/06 03:58:53;;;;;;;3.60;0.25;;;21.30;56.00;;;;;;5040187;28;20032;-45
2021/10/06 04:01:20;;;;;;;2.20;0.10;;;21.30;56.00;;;;;;5045681;28;20044;-43
2021/10/06 04:03:47;;;;;;;2.60;0.50;;;21.30;56.00;;;;;;5041948;28;20033;-45
2021/10/06 04:06:14;;;;;;;3.03;0.10;;;21.30;56.00;;;;;;5040909;28;20049;-44
2021/10/06 04:08:41;;;;;;;0.85;0.10;;;21.30;56.00;;;;;;5044955;28;20421;-44
2021/10/06 04:11:08;;;;;;;2.17;0.10;;;21.30;56.00;;;;;;5043088;28;20037;-44
2021/10/06 04:13:36;;;;;;;1.73;0.38;;;21.30;55.90;;;;;;5045979;28;20056;-45
2021/10/06 04:16:03;;;;;;;0.65;0.00;;;21.30;55.90;;;;;;5047222;28;20335;-44
2021/10/06 04:18:30;;;;;;;1.55;0.05;;;21.30;55.90;;;;;;5045685;28;20060;-45
2021/10/06 04:20:57;;;;;;;2.90;0.00;;;21.30;55.90;;;;;;5045572;28;20045;-44
2021/10/06 04:23:24;;;;;;;1.33;0.10;;;21.30;55.80;;;;;;5044775;28;20044;-44
2021/10/06 04:25:51;;;;;;;1.85;0.00;;;21.30;55.80;;;;;;5045582;28;20053;-46
2021/10/06 04:28:18;;;;;;;3.00;0.10;;;21.30;55.80;;;;;;5047642;28;20055;-44
2021/10/06 04:30:46;;;;;;;1.20;0.40;;;21.30;55.80;;;;;;5045101;28;20090;-44
2021/10/06 04:33:13;;;;;;;0.60;0.50;;;21.30;55.80;;;;;;5045689;28;20040;-43
2021/10/06 04:35:40;;;;;;;1.55;0.10;;;21.30;55.70;;;;;;5045448;28;20045;-45
2021/10/06 04:38:07;;;;;;;0.20;0.00;;;21.30;55.70;;;;;;5045785;28;20044;-45
2021/10/06 04:40:35;;;;;;;2.08;0.10;;;21.30;55.70;;;;;;5046030;28;20041;-45
2021/10/06 04:43:02;;;;;;;2.65;0.03;;;21.30;55.70;;;;;;5047321;28;20056;-42
2021/10/06 04:45:29;;;;;;;0.35;0.00;;;21.30;55.70;;;;;;5043925;28;20124;-43
2021/10/06 04:47:57;;;;;;;1.15;0.20;;;21.30;55.70;;;;;;5045292;28;20513;-43
2021/10/06 04:50:27;;;;;;;1.20;0.00;;;21.30;55.90;;;;;;5044880;28;20056;-43
2021/10/06 04:52:54;;;;;;;1.63;0.00;;;21.30;55.90;;;;;;5044617;28;20049;-43
2021/10/06 04:55:21;;;;;;;2.13;0.00;;;21.30;55.80;;;;;;5043764;28;20056;-44
2021/10/06 04:57:48;;;;;;;1.88;0.20;;;21.30;55.80;;;;;;5045104;28;20060;-44
2021/10/06 05:00:16;;;;;;;1.40;0.20;;;21.30;55.70;;;;;;5045151;28;20049;-43
2021/10/06 05:02:43;;;;;;;0.20;0.10;;;21.30;55.70;;;;;;5044114;28;20052;-44
2021/10/06 05:05:11;;;;;;;4.03;0.03;;;21.30;55.70;;;;;;5044619;28;20095;-44
2021/10/06 05:07:38;;;;;;;1.30;0.03;;;21.30;55.70;;;;;;5045813;28;20053;-44
2021/10/06 05:10:06;;;;;;;0.70;0.08;;;21.20;55.50;;;;;;5046653;28;20045;-44
2021/10/06 05:12:33;;;;;;;1.52;0.00;;;21.30;55.60;;;;;;5045250;28;20481;-44
2021/10/06 05:15:00;;;;;;;0.90;0.10;;;21.30;55.60;;;;;;5043678;28;20041;-43
2021/10/06 05:17:27;;;;;;;1.50;0.10;;;21.20;55.50;;;;;;5045167;28;20044;-45
2021/10/06 05:19:54;;;;;;;2.05;0.10;;;21.20;55.50;;;;;;5044015;28;20046;-45
2021/10/06 05:22:22;;;;;;;4.22;0.10;;;21.20;55.50;;;;;;5046954;28;20041;-43
2021/10/06 05:24:49;;;;;;;1.25;0.10;;;21.20;55.60;;;;;;5045771;28;20036;-43
2021/10/06 05:27:16;;;;;;;0.75;0.10;;;21.20;55.70;;;;;;5048319;28;20049;-44
2021/10/06 05:29:43;;;;;;;3.22;0.10;;;21.20;55.70;;;;;;5045611;28;20056;-45
2021/10/06 05:32:10;;;;;;;2.25;0.30;;;21.20;55.70;;;;;;5049315;28;20564;-44
2021/10/06 05:34:37;;;;;;;1.48;0.10;;;21.20;55.80;;;;;;5047409;28;20055;-44
2021/10/06 05:37:04;;;;;;;1.48;0.10;;;21.20;55.70;;;;;;5051078;28;20048;-45
2021/10/06 05:39:33;;;;;;;0.90;0.10;;;21.20;55.70;;;;;;5049398;28;20040;-45
2021/10/06 05:42:00;;;;;;;0.93;0.00;;;21.20;55.60;;;;;;5049382;28;20154;-45
2021/10/06 05:44:27;;;;;;;1.23;0.10;;;21.20;55.60;;;;;;5049850;28;20068;-46
2021/10/06 05:46:54;;;;;;;2.10;0.10;;;21.20;55.60;;;;;;5048920;28;21198;-43
2021/10/06 05:49:21;;;;;;;0.65;0.10;;;21.20;55.60;;;;;;5050769;28;20056;-43
2021/10/06 05:51:48;;;;;;;1.02;0.10;;;21.20;55.60;;;;;;5046510;28;20045;-43
2021/10/06 05:54:15;;;;;;;2.80;0.10;;;21.20;55.60;;;;;;5043622;28;20064;-43
2021/10/06 05:56:43;;;;;;;3.03;0.10;;;21.20;55.60;;;;;;5047895;28;20037;-44
2021/10/06 05:59:10;;;;;;;1.38;0.00;;;21.20;55.60;;;;;;5047724;28;20033;-43
2021/10/06 06:01:38;;;;;;;0.45;0.00;;;21.20;55.60;;;;;;5048445;28;20456;-43
2021/10/06 06:04:05;;;;;;;0.15;0.00;;;21.20;55.60;;;;;;5050284;28;20123;-44
2021/10/06 06:06:32;;;;;;;1.80;0.03;;;21.20;55.60;;;;;;5041814;28;20422;-43
2021/10/06 06:08:59;;;;;;;1.40;0.10;;;21.20;55.50;;;;;;5048695;28;20450;-42
2021/10/06 06:11:27;;;;;;;0.70;0.05;;;21.20;55.50;;;;;;5048111;28;20033;-45
2021/10/06 06:13:55;;;;;;;0.20;0.10;;;21.20;55.60;;;;;;5048194;28;20063;-43
2021/10/06 06:16:22;;;;;;;2.33;0.20;;;21.20;55.50;;;;;;5050046;28;20033;-44
2021/10/06 06:18:49;;;;;;;1.90;0.10;;;21.20;55.50;;;;;;5046974;28;20041;-42
2021/10/06 06:21:16;;;;;;;1.00;0.10;;;21.20;55.50;;;;;;5047151;28;20041;-43
2021/10/06 06:23:43;;;;;;;1.33;0.10;;;21.20;55.50;;;;;;5047795;28;20120;-43
2021/10/06 06:26:10;;;;;;;0.10;0.00;;;21.20;55.50;;;;;;5048036;28;20033;-45
2021/10/06 06:28:38;;;;;;;0.75;0.00;;;21.20;55.40;;;;;;5046136;28;20064;-43
2021/10/06 06:31:07;;;;;;;1.92;0.20;;;21.20;55.40;;;;;;5049211;28;20037;-43
2021/10/06 06:33:35;;;;;;;0.95;0.35;;;21.30;55.50;;;;;;5040482;28;20061;-43
2021/10/06 06:36:04;;;;;;;5.78;0.73;;;21.20;55.40;;;;;;5042463;28;20398;-45
2021/10/06 06:38:31;;;;;;;0.32;0.10;;;21.30;55.40;;;;;;5044350;28;20099;-44
2021/10/06 06:40:58;;;;;;;0.20;0.10;;;21.20;55.40;;;;;;5048427;28;20493;-44
2021/10/06 06:43:25;;;;;;;1.95;0.30;;;21.30;55.40;;;;;;5044208;28;20045;-45
2021/10/06 06:45:52;;;;;;;1.83;0.55;;;21.30;55.40;;;;;;5048948;28;20037;-43
2021/10/06 06:48:21;;;;;;;1.45;0.10;;;21.30;55.40;;;;;;5047463;28;20045;-43
2021/10/06 06:50:52;;;;;;;1.95;0.10;;;21.30;55.40;;;;;;5046619;28;20037;-43
2021/10/06 06:53:20;;;;;;;0.17;0.10;;;21.30;55.40;;;;;;5046669;28;20486;-41
2021/10/06 06:55:47;;;;;;;1.67;0.38;;;21.30;55.30;;;;;;5048154;28;20042;-42
2021/10/06 06:58:14;;;;;;;2.20;0.10;;;21.20;55.20;;;;;;5048624;28;20033;-42
2021/10/06 07:00:42;;;;;;;1.70;0.30;;;21.30;55.30;;;;;;5046615;28;20040;-44
2021/10/06 07:03:09;;;;;;;0.65;0.20;;;21.20;55.20;;;;;;5048258;28;20111;-44
2021/10/06 07:05:37;;;;;;;0.90;0.10;;;21.20;55.20;;;;;;5047270;28;20099;-44
2021/10/06 07:08:05;;;;;;;0.32;0.10;;;21.30;55.20;;;;;;5048120;28;20052;-43
2021/10/06 07:10:32;;;;;;;4.75;0.10;;;21.30;55.20;;;;;;5048940;28;20064;-43
2021/10/06 07:12:59;;;;;;;1.10;0.10;;;21.30;55.30;;;;;;5049171;28;20049;-44
2021/10/06 07:15:26;;;;;;;2.70;0.10;;;21.30;55.20;;;;;;5047945;28;20037;-42
2021/10/06 07:17:53;;;;;;;2.10;0.08;;;21.30;55.30;;;;;;5047863;28;20049;-43
2021/10/06 07:20:20;;;;;;;7.25;0.20;;;21.30;55.30;;;;;;5047478;28;20064;-43
2021/10/06 07:22:49;;;;;;;1.40;0.10;;;21.30;55.20;;;;;;5047530;28;20421;-46
2021/10/06 07:25:17;;;;;;;3.22;0.20;;;21.30;55.20;;;;;;5049655;28;20037;-43
2021/10/06 07:27:44;;;;;;;1.58;0.13;;;21.30;55.10;;;;;;5047806;28;20048;-43
2021/10/06 07:30:12;;;;;;;1.45;0.00;;;21.30;55.10;;;;;;5041164;28;20103;-45
2021/10/06 07:32:40;;;;;;;0.60;0.25;;;21.40;55.10;;;;;;5047559;28;20055;-42
2021/10/06 07:35:10;;;;;;;0.38;0.10;;;21.30;55.00;;;;;;5042133;28;20060;-43
2021/10/06 07:37:37;;;;;;;1.75;0.10;;;21.40;55.00;;;;;;5045854;28;20503;-48
2021/10/06 07:40:07;;;;;;;1.20;0.10;;;21.30;55.00;;;;;;5045091;28;20041;-47
2021/10/06 07:42:34;;;;;;;0.88;0.20;;;21.40;55.10;;;;;;5046169;28;20409;-48
2021/10/06 07:45:01;;;;;;;1.60;0.10;;;21.40;55.10;;;;;;5043303;28;20472;-47
2021/10/06 07:47:28;;;;;;;0.40;0.32;;;21.40;55.00;;;;;;5044845;28;20554;-46
2021/10/06 07:49:55;;;;;;;5.00;0.20;;;21.40;55.00;;;;;;5042176;28;20048;-53
2021/10/06 07:52:23;;;;;;;1.95;0.10;;;21.40;55.00;;;;;;5044349;28;20424;-40
2021/10/06 07:54:50;;;;;;;2.20;0.10;;;21.50;55.20;;;;;;5044638;28;20095;-66
2021/10/06 07:57:19;;;;;;;6.20;0.40;;;21.50;55.40;;;;;;5039390;28;20044;-67
2021/10/06 07:59:46;;;;;;;0.70;0.30;;;21.50;55.50;;;;;;5042145;28;20040;-69
2021/10/06 08:02:13;;;;;;;0.52;0.10;;;21.50;55.50;;;;;;5043434;28;20422;-67
2021/10/06 08:04:40;;;;;;;1.00;0.20;;;21.50;55.50;;;;;;5043307;28;20063;-65
2021/10/06 08:07:07;;;;;;;3.83;0.10;;;21.60;55.60;;;;;;5042343;28;20045;-63
2021/10/06 08:09:35;;;;;;;2.60;0.10;;;21.60;55.60;;;;;;5042987;28;20036;-67
2021/10/06 08:12:02;;;;;;;2.17;0.10;;;21.60;55.50;;;;;;5042721;28;20075;-65
2021/10/06 08:14:30;;;;;;;1.38;0.55;;;21.60;55.50;;;;;;5041185;28;20108;-62
2021/10/06 08:16:57;;;;;;;6.22;0.15;;;21.70;55.50;;;;;;5038360;28;20052;-64
2021/10/06 08:19:24;;;;;;;0.50;0.50;;;21.70;55.50;;;;;;5045166;28;20040;-71
2021/10/06 08:21:51;;;;;;;3.72;0.20;;;21.70;55.40;;;;;;5045690;28;20036;-68
2021/10/06 08:24:38;;;;;;;0.50;0.30;;;21.70;55.40;;;;;;5041351;28;20536;-69
2021/10/06 08:27:06;;;;;;;2.03;0.10;;;21.70;55.40;;;;;;5044884;28;20434;-66
2021/10/06 08:29:34;;;;;;;2.40;0.88;;;21.70;55.40;;;;;;5041815;28;20037;-68
2021/10/06 08:32:02;;;;;;;1.10;0.13;;;21.70;55.30;;;;;;5042245;28;20035;-59
2021/10/06 08:34:29;;;;;;;1.10;0.10;;;21.70;55.30;;;;;;5046097;28;20460;-62
2021/10/06 08:36:56;;;;;;;0.98;0.32;;;21.80;55.40;;;;;;5042320;28;20037;-60
2021/10/06 08:39:23;;;;;;;1.40;0.10;;;21.80;55.50;;;;;;5043498;28;20040;-67
2021/10/06 08:41:50;;;;;;;2.97;0.15;;;21.80;55.50;;;;;;5043990;28;20346;-65
2021/10/06 08:44:17;;;;;;;0.50;0.10;;;21.80;55.40;;;;;;5044793;28;20501;-64
2021/10/06 08:46:47;;;;;;;4.00;0.57;;;21.90;55.40;;;;;;5041838;28;20034;-60
2021/10/06 08:49:14;;;;;;;1.85;0.22;;;21.90;55.40;;;;;;5045988;28;20025;-64
2021/10/06 08:51:41;;;;;;;1.73;0.10;;;21.80;55.30;;;;;;5042063;28;20140;-46
2021/10/06 08:54:08;;;;;;;1.30;0.30;;;21.90;55.20;;;;;;5041632;28;20038;-45
2021/10/06 08:56:36;;;;;;;1.90;0.10;;;21.90;55.00;;;;;;5040818;28;20052;-55
2021/10/06 08:59:04;;;;;;;2.50;0.52;;;21.90;54.90;;;;;;5043244;28;20045;-59
2021/10/06 09:01:31;;;;;;;3.30;0.50;;;21.90;55.00;;;;;;5048983;28;20040;-50
2021/10/06 09:04:02;;;;;;;1.90;0.20;;;21.90;54.90;;;;;;5048084;28;20040;-54
2021/10/06 09:06:35;;;;;;;2.05;0.10;;;22.00;54.90;;;;;;5044820;28;20048;-47
2021/10/06 09:09:13;;;;;;;1.77;0.13;;;22.00;54.90;;;;;;5045982;28;20045;-51
2021/10/06 09:11:41;;;;;;;1.02;0.20;;;22.00;54.70;;;;;;5046175;28;21397;-49
2021/10/06 09:14:08;;;;;;;0.65;0.10;;;22.00;54.60;;;;;;5048216;28;20513;-48
2021/10/06 09:16:37;;;;;;;2.28;0.10;;;22.00;54.60;;;;;;5049229;28;20056;-47
2021/10/06 09:19:07;;;;;;;1.80;0.25;;;22.00;54.50;;;;;;5049326;28;20452;-47
2021/10/06 09:21:52;;;;;;;1.05;0.10;;;22.00;54.50;;;;;;5048689;28;20041;-51
2021/10/06 09:24:19;;;;;;;2.30;0.10;;;22.00;54.40;;;;;;5044476;28;20033;-48
2021/10/06 09:26:46;;;;;;;4.22;1.20;;;22.00;54.40;;;;;;5043679;28;20410;-48
2021/10/06 09:29:20;;;;;;;1.38;0.10;;;22.00;54.30;;;;;;5044304;28;20421;-46
2021/10/06 09:31:48;;;;;;;1.92;0.17;;;22.10;54.20;;;;;;5046191;28;20497;-49
2021/10/06 09:34:16;;;;;;;1.73;0.20;;;22.10;54.20;;;;;;5045487;28;20043;-47
2021/10/06 09:36:43;;;;;;;2.88;0.38;;;22.10;54.10;;;;;;5047062;28;20049;-46
2021/10/06 09:39:12;;;;;;;1.30;0.55;;;22.20;54.10;;;;;;5038256;28;20060;-47
2021/10/06 09:41:43;;;;;;;1.67;0.80;;;22.10;54.00;;;;;;5046582;28;20527;-45
2021/10/06 09:44:11;;;;;;;1.77;0.15;;;22.10;53.90;;;;;;5046109;28;20555;-49
2021/10/06 09:46:47;;;;;;;3.70;0.22;;;22.10;53.90;;;;;;5045604;28;20033;-49
2021/10/06 09:49:21;;;;;;;6.70;1.33;;;22.20;53.90;;;;;;5046102;28;20528;-47
2021/10/06 09:51:48;;;;;;;3.50;0.43;;;22.20;53.90;;;;;;5045560;28;20405;-48
2021/10/06 09:54:16;;;;;;;2.17;0.30;;;22.20;53.80;;;;;;5047984;28;20473;-47
2021/10/06 09:56:44;;;;;;;9.70;0.68;;;22.20;53.80;;;;;;5045011;28;20045;-48
2021/10/06 09:59:12;;;;;;;4.72;0.73;;;22.20;53.70;;;;;;5046638;28;20045;-47
2021/10/06 10:01:41;;;;;;;7.32;0.40;;;22.30;53.80;;;;;;5044260;28;20063;-48
2021/10/06 10:04:10;;;;;;;7.35;0.13;;;22.30;53.70;;;;;;5044747;28;20120;-47
2021/10/06 10:06:39;;;;;;;1.88;0.60;;;22.30;53.60;;;;;;5044640;28;20052;-49
2021/10/06 10:09:08;;;;;;;3.30;0.47;;;22.30;53.60;;;;;;5047446;28;20053;-48
2021/10/06 10:11:38;;;;;;;4.20;0.40;;;22.30;53.50;;;;;;5043387;28;20141;-47
2021/10/06 10:14:08;;;;;;;2.60;0.20;;;22.30;53.40;;;;;;5047862;28;20044;-47
2021/10/06 10:16:38;;;;;;;1.92;0.10;;;22.30;53.40;;;;;;5046528;28;20428;-48
2021/10/06 10:19:08;;;;;;;2.63;0.15;;;22.40;53.30;;;;;;5050005;28;20045;-49
2021/10/06 10:21:38;;;;;;;3.10;0.25;;;22.40;53.30;;;;;;5040582;28;20037;-49
2021/10/06 10:24:08;;;;;;;3.47;0.10;;;22.40;53.20;;;;;;5047867;28;20041;-52
2021/10/06 10:26:35;;;;;;;5.43;0.30;;;22.40;53.10;;;;;;5048872;28;20037;-48
2021/10/06 10:29:02;;;;;;;2.38;0.30;;;22.40;53.10;;;;;;5048281;28;20045;-49
2021/10/06 10:31:29;;;;;;;2.53;0.30;;;22.40;53.00;;;;;;5050009;28;20052;-49
2021/10/06 10:33:56;;;;;;;1.58;0.38;;;22.40;53.00;;;;;;5047010;28;20037;-50
2021/10/06 10:36:50;;;;;;;1.95;0.20;;;22.40;52.90;;;;;;5045279;28;20041;-48
2021/10/06 10:40:00;;;;;;;2.38;0.10;;;22.50;52.80;;;;;;5046228;28;20033;-52
2021/10/06 10:42:58;;;;;;;1.88;0.20;;;22.50;52.80;;;;;;5047868;28;20044;-47
2021/10/06 10:45:36;;;;;;;3.45;0.10;;;22.50;52.80;;;;;;5042751;28;20410;-48
2021/10/06 10:48:04;;;;;;;3.20;0.40;;;22.50;52.80;;;;;;5047634;28;20044;-47
2021/10/06 10:51:11;;;;;;;1.17;0.50;;;22.50;52.70;;;;;;5048479;28;20052;-48
2021/10/06 10:54:00;;;;;;;2.67;0.68;;;22.50;52.50;;;;;;5042047;28;20540;-50
2021/10/06 10:56:47;;;;;;;1.65;0.10;;;22.50;52.50;;;;;;5047338;28;20505;-49
2021/10/06 10:59:18;;;;;;;1.90;0.10;;;22.50;52.50;;;;;;5048480;28;20040;-49
2021/10/06 11:01:51;;;;;;;1.45;0.10;;;22.50;52.40;;;;;;5048183;28;20533;-50
2021/10/06 11:04:20;;;;;;;0.20;0.10;;;22.60;52.40;;;;;;5047293;28;20041;-48
2021/10/06 11:06:49;;;;;;;2.15;0.20;;;22.60;52.30;;;;;;5048128;28;20472;-49
2021/10/06 11:09:45;;;;;;;1.35;0.10;;;22.60;52.30;;;;;;5042974;28;20041;-47
2021/10/06 11:12:32;;;;;;;2.20;0.10;;;22.60;52.10;;;;;;5042221;28;20077;-49
2021/10/06 11:15:36;;;;;;;2.13;0.10;;;22.70;52.20;;;;;;5044149;28;20033;-49
2021/10/06 11:18:20;;;;;;;0.82;0.10;;;22.60;52.10;;;;;;5047982;28;20147;-48
2021/10/06 11:20:54;;;;;;;1.05;0.10;;;22.70;52.10;;;;;;5047721;28;20098;-47
2021/10/06 11:23:54;;;;;;;0.50;0.20;;;22.70;52.10;;;;;;5048035;28;20045;-47
2021/10/06 11:26:28;;;;;;;1.63;0.10;;;22.70;51.90;;;;;;5041229;28;20049;-47
2021/10/06 11:28:57;;;;;;;2.15;0.10;;;22.70;52.00;;;;;;5044827;28;20184;-49
2021/10/06 11:31:25;;;;;;;3.35;1.02;;;22.70;51.90;;;;;;5045216;28;20055;-48
2021/10/06 11:33:53;;;;;;;6.25;0.40;;;22.70;51.90;;;;;;5047701;28;20045;-47
2021/10/06 11:36:22;;;;;;;1.20;0.85;;;22.70;51.80;;;;;;5047530;28;20447;-47
2021/10/06 11:38:50;;;;;;;6.22;0.85;;;22.70;51.80;;;;;;5047553;28;20533;-50
2021/10/06 11:41:19;;;;;;;3.50;0.73;;;22.70;51.80;;;;;;5047804;28;20037;-47
2021/10/06 11:43:50;;;;;;;4.93;1.38;;;22.80;51.90;;;;;;5045728;28;20469;-48
2021/10/06 11:46:20;;;;;;;7.00;1.67;;;22.80;51.80;;;;;;5049240;28;20044;-49
2021/10/06 11:48:55;;;;;;;5.07;0.63;;;22.80;51.80;;;;;;5047206;28;20049;-48
2021/10/06 11:51:37;;;;;;;4.15;1.10;;;22.90;51.70;;;;;;5047293;28;20124;-50
2021/10/06 11:54:05;;;;;;;2.92;0.95;;;22.90;51.60;;;;;;5046064;28;20417;-46
2021/10/06 11:56:33;;;;;;;3.55;1.38;;;22.90;51.70;;;;;;5029612;28;20035;-47
2021/10/06 11:59:12;;;;;;;4.15;0.88;;;22.90;51.60;;;;;;5045262;28;20580;-47
2021/10/06 12:01:41;;;;;;;1.83;0.65;;;23.00;51.50;;;;;;5041559;28;20048;-50
2021/10/06 12:04:13;;;;;;;3.90;0.82;;;23.00;51.50;;;;;;5048117;28;20041;-50
2021/10/06 12:06:45;;;;;;;9.50;0.80;;;23.00;51.40;;;;;;5045700;28;20052;-48
2021/10/06 12:09:13;;;;;;;1.35;0.40;;;23.00;51.30;;;;;;5045753;28;20049;-47
2021/10/06 12:11:43;;;;;;;2.80;0.32;;;23.10;51.30;;;;;;5045087;28;20065;-47
2021/10/06 12:14:29;;;;;;;3.75;0.50;;;23.10;51.30;;;;;;5044756;28;20052;-48
2021/10/06 12:17:00;;;;;;;3.60;0.77;;;23.20;51.30;;;;;;5045202;28;20067;-48
2021/10/06 12:19:28;;;;;;;3.20;1.20;;;23.20;51.30;;;;;;5044788;28;20041;-47
2021/10/06 12:21:55;;;;;;;6.90;0.57;;;23.20;51.30;;;;;;5042404;28;20049;-48
2021/10/06 12:24:26;;;;;;;3.85;0.45;;;23.20;51.30;;;;;;5040984;28;20127;-55
2021/10/06 12:26:54;;;;;;;1.67;0.20;;;23.30;51.20;;;;;;5043114;28;20037;-62
2021/10/06 12:29:22;;;;;;;5.75;0.77;;;23.30;51.20;;;;;;5040810;28;20429;-55
2021/10/06 12:31:55;;;;;;;2.95;0.20;;;23.30;51.30;;;;;;5044993;28;20045;-59
2021/10/06 12:34:24;;;;;;;1.95;1.05;;;23.30;51.30;;;;;;5045178;28;20048;-56
2021/10/06 12:36:53;;;;;;;2.10;0.32;;;23.30;51.30;;;;;;5045119;28;20044;-52
2021/10/06 12:39:23;;;;;;;2.92;0.70;;;23.40;51.30;;;;;;5040911;28;20525;-53
2021/10/06 12:41:55;;;;;;;1.05;0.43;;;23.40;51.20;;;;;;5045651;28;20127;-53
2021/10/06 12:44:27;;;;;;;1.75;0.30;;;23.40;51.20;;;;;;5038498;28;20044;-56
2021/10/06 12:46:58;;;;;;;0.90;0.80;;;23.50;51.10;;;;;;5041792;28;20041;-54
2021/10/06 12:49:27;;;;;;;2.05;0.50;;;23.50;51.00;;;;;;5045912;28;20112;-54
2021/10/06 12:51:56;;;;;;;1.55;0.20;;;23.50;50.90;;;;;;5040576;28;20041;-49
2021/10/06 12:54:25;;;;;;;4.15;0.75;;;23.50;50.90;;;;;;5043840;28;20405;-48
2021/10/06 12:56:55;;;;;;;4.80;1.27;;;23.60;50.80;;;;;;5043453;28;20056;-51